• Join FlightAware (Why Join?)
  • Login
  • US Flag 
01:46PM EDT


 

Airport Tracker/Info


-or-


 

Live Flight TrackerFlight Track Log ✈ N918MJ ✈ 26-Jun-2013 ✈ KISP - KPWK

Flight Track Log - Related Links

Times and Time Zones

All times are in EDT time to prevent confusion due to time zone crossing. See the N918MJ flight status page for this flight to view local times or setup timezone preferences in your user account.

Time Position Orientation Groundspeed Altitude Reporting Facility
EDT Latitude Longitude Course Direction KTS MPH feet Rate Location/Type
05:28PM 40.7333 -73.1333 323° Northwest 225 259 3,100  Level New York TRACON
05:29PM 40.7000 -73.0667 123° Southeast 301 346 4,100 480 Climbing New York TRACON
05:30PM 40.7667 -73.0333 21° North 304 350 4,100 1,200 Level New York TRACON
05:31PM 40.8000 -73.1000 303° West 256 295 6,500 1,920 Climbing New York TRACON
05:32PM 40.8000 -73.2000 270° West 260 299 8,000 1,920 Climbing New York TRACON
05:33PM 40.8000 -73.3000 270° West 273 314 10,400 2,640 Climbing New York TRACON
05:34PM 40.9537 -73.8704 323° Northwest  Level FlightAware Approximate
05:34PM 40.8500 -73.3833 308° West 297 342 13,300  Level New York TRACON
05:35PM 40.9000 -73.4667 308° West 303 349 15,900 1,800 Climbing New York TRACON
05:36PM 40.9500 -73.5500 308° West 320 368 17,000 540 Climbing New York TRACON
05:37PM 41.0167 -73.6500 311° West 370 426 17,000  Level New York TRACON
05:38PM 41.0833 -73.7667 307° West 374 430 17,000  Level New York TRACON
05:39PM 41.0833 -73.9000 270° West 356 410 17,000  Level New York TRACON
05:40PM 41.1000 -74.0333 279° West 358 412 17,000  Level New York TRACON
05:43PM 41.1161 -74.3375 274° West 344 396 17,000  Level New York Center
05:44PM 41.1228 -74.4536 274° West 339 390 17,000  Level New York Center
05:45PM 41.1308 -74.5944 274° West 355 409 17,000  Level New York Center
05:46PM 41.1458 -74.7083 280° West 360 414 17,100 960 Climbing New York Center
05:47PM 41.1981 -74.8328 299° West 352 405 19,000 1,380 Climbing New York Center
05:48PM 41.2458 -74.9514 298° West 358 412 19,900 1,080 Climbing New York Center
05:49PM 41.2997 -75.0736 300° West 369 425 21,200 1,380 Climbing New York Center
05:50PM 41.3517 -75.1931 300° West 369 425 22,700 1,260 Climbing New York Center
05:51PM 41.4053 -75.3181 300° West 375 432 23,800 900 Climbing New York Center
05:52PM 41.4586 -75.4436 300° West 380 437 24,600 900 Climbing New York Center
05:53PM 41.5033 -75.5769 294° West 385 443 25,700 1,320 Climbing New York Center
05:54PM 41.5414 -75.7128 291° West 391 450 27,300 1,620 Climbing New York Center
05:55PM 41.5817 -75.8461 292° West 391 450 28,900 1,500 Climbing New York Center
05:56PM 41.6178 -75.9764 290° West 391 450 30,400 1,140 Climbing New York Center
05:57PM 41.6519 -76.0956 291° West 386 444 31,300 780 Climbing New York Center
05:58PM 41.6917 -76.2319 291° West 386 444 32,100 900 Climbing New York Center
05:59PM 41.7308 -76.3742 290° West 397 457 33,100 1,320 Climbing New York Center
06:00PM 41.7694 -76.5250 289° West 397 457 34,700 1,380 Climbing New York Center
06:01PM 41.8086 -76.6619 291° West 397 457 36,000 1,140 Climbing New York Center
06:02PM 41.8472 -76.8044 290° West 397 457 37,100 1,140 Climbing New York Center
06:04PM 41.9092 -77.0283 290° West 407 468 39,200 1,020 Climbing Cleveland Center
06:05PM 41.9467 -77.1686 290° West 401 461 40,000 360 Climbing Cleveland Center
06:06PM 41.9867 -77.3175 290° West 406 467 40,000  Level Cleveland Center
06:07PM 42.0239 -77.4636 289° West 411 473 40,000  Level Cleveland Center
06:08PM 42.0656 -77.6128 291° West 424 488 40,000  Level Cleveland Center
06:09PM 42.1047 -77.7647 289° West 424 488 40,000  Level Cleveland Center
06:10PM 42.1250 -77.9208 280° West 424 488 40,000  Level Cleveland Center
06:11PM 42.1392 -78.0797 277° West 424 488 40,000  Level Cleveland Center
06:12PM 42.1511 -78.2531 275° West 424 488 40,000  Level Cleveland Center
06:13PM 42.1647 -78.4150 277° West 429 494 40,000  Level Cleveland Center
06:14PM 42.1758 -78.5742 275° West 429 494 40,000  Level Cleveland Center
06:15PM 42.1867 -78.7197 276° West 429 494 40,000  Level Cleveland Center
06:16PM 42.1975 -78.8819 275° West 434 499 40,000  Level Cleveland Center
06:17PM 42.2106 -79.0581 276° West 434 499 40,000  Level Cleveland Center
06:18PM 42.2208 -79.2206 275° West 440 506 40,000  Level Cleveland Center
06:19PM 42.2308 -79.3831 275° West 440 506 40,000  Level Cleveland Center
06:20PM 42.2408 -79.5483 275° West 440 506 40,000  Level Cleveland Center
06:21PM 42.2506 -79.7136 275° West 440 506 40,000  Level Cleveland Center
06:22PM 42.2600 -79.8733 275° West 440 506 40,000  Level Cleveland Center
06:23PM 42.2692 -80.0417 274° West 446 513 40,000  Level Cleveland Center
06:24PM 42.2803 -80.2100 275° West 446 513 40,000  Level Cleveland Center
06:25PM 42.2892 -80.3783 274° West 446 513 40,000  Level Cleveland Center
06:26PM 42.2997 -80.5411 275° West 441 507 40,000  Level Cleveland Center
06:27PM 42.3081 -80.7094 274° West 441 507 40,000  Level Cleveland Center
06:28PM 42.3161 -80.8583 274° West 450 518 40,000  Level Cleveland Center
06:29PM 42.3258 -81.0242 275° West 442 509 40,000  Level Cleveland Center
06:30PM 42.3314 -81.1869 273° West 442 509 40,000  Level Cleveland Center
06:31PM 42.3408 -81.3556 274° West 442 509 40,000  Level Cleveland Center
06:32PM 42.3481 -81.5244 273° West 447 514 40,000  Level Cleveland Center
06:33PM 42.3547 -81.6903 273° West 441 507 40,000  Level Cleveland Center
06:34PM 42.3633 -81.8617 274° West 447 514 40,000  Level Cleveland Center
06:35PM 42.3697 -82.0278 273° West 452 520 40,000  Level Cleveland Center
06:36PM 42.3736 -82.2133 272° West 452 520 40,000  Level Cleveland Center
06:37PM 42.3814 -82.3822 274° West 452 520 40,000  Level Cleveland Center
06:38PM 42.3892 -82.5483 274° West 452 520 40,000  Level Cleveland Center
06:39PM 42.3947 -82.7142 273° West 452 520 40,000  Level Cleveland Center
06:40PM 42.3997 -82.8833 272° West 452 520 40,000  Level Cleveland Center
06:41PM 42.4067 -83.0494 273° West 452 520 40,000  Level Cleveland Center
06:42PM 42.4133 -83.2211 273° West 452 520 40,000  Level Cleveland Center
06:43PM 42.4153 -83.3956 271° West 466 536 40,000 -120 Level Cleveland Center
06:44PM 42.4194 -83.5703 272° West 466 536 39,800 -900 Descending Cleveland Center
06:45PM 42.4292 -83.7425 274° West 461 531 38,300 -900 Descending Cleveland Center
06:46PM 42.4308 -83.9114 271° West 461 531 38,000 -180 Descending Cleveland Center
06:47PM 42.4361 -84.0833 272° West 461 531 38,000 -720 Level Cleveland Center
06:48PM 42.4372 -84.2522 271° West 461 531 36,600 -1,500 Descending Cleveland Center
06:49PM 42.4419 -84.4269 272° West 461 531 35,100 -1,440 Descending Cleveland Center
06:49PM 42.4447 -84.5033 273° West 470 541 34,300 -1,500 Descending Chicago Center
06:50PM 42.4486 -84.7164 271° West 472 543 32,600 -1,620 Descending Chicago Center
06:51PM 42.4531 -84.8958 272° West 475 547 31,000 -1,260 Descending Chicago Center
06:52PM 42.4550 -85.0761 271° West 477 549 30,000 -900 Descending Chicago Center
06:54PM 42.4541 -85.2359 270° West  Level FlightAware Approximate
06:54PM 42.4597 -85.4306 270° West 469 540 28,300  Level Chicago Center
06:56PM 42.4617 -85.6172 271° West 490 564 25,800 -2,640 Descending Chicago Center
06:57PM 42.4639 -85.8261 271° West 467 537 22,800 -2,700 Descending Chicago Center
06:58PM 42.4650 -85.9953 271° West 452 520 20,200 -2,520 Descending Chicago Center
06:59PM 42.4631 -86.1583 269° West 434 499 17,600 -2,460 Descending Chicago Center
07:00PM 42.4536 -86.3139 265° West 417 480 15,200 -2,100 Descending Chicago Center
07:01PM 42.4456 -86.4664 266° West 406 467 13,300 -1,800 Descending Chicago Center
07:02PM 42.4383 -86.6153 266° West 398 458 11,500 -1,860 Descending Chicago Center
07:03PM 42.4311 -86.7758 267° West 363 418 9,500 -1,620 Descending Chicago Center
07:04PM 42.4236 -86.8864 265° West 311 358 8,200 -1,260 Descending Chicago Center
07:05PM 42.4175 -86.9983 266° West 301 346 6,900 -1,260 Descending Chicago Center
07:06PM 42.4089 -87.1025 264° West 287 330 5,600 -1,260 Descending Chicago Center
07:07PM 42.4025 -87.2081 265° West 282 325 4,300 -1,260 Descending Chicago Center
07:08PM 42.3992 -87.3103 268° West 276 318 3,100 -660 Descending Chicago Center
07:09PM 42.3739 -87.4261 254° West 271 312 3,000 -120 Descending Chicago Center
07:10PM 42.3506 -87.5189 251° West 266 306 2,900 -60 Descending Chicago Center
07:11PM 42.3283 -87.6144 253° West 267 307 2,900  Level Chicago Center
07:12PM 42.3047 -87.7117 252° West 270 311 2,900 -300 Level Chicago Center
07:13PM 42.2833 -87.8078 253° West 271 312 2,400 -300 Descending Chicago Center
07:14PM 42.2411 -87.8769 231° Southwest 253 291 2,300 -120 Descending Chicago Center
07:16PM 42.1417 -87.9104 169° South  Level FlightAware Approximate
07:23PM 42.1143 -87.9015 169° South  Level Estimated
07:24PM 42.1143 -87.9015 169° South  Level Estimated
07:25PM 42.1143 -87.9015 169° South  Level Estimated